Pagrindinis puslapis
METAR-TAF:

METAR-TAF

Oro uostai :

Trumsė, Norvegija

platuma: 69-41N, ilguma: 018-55E, Aukštis: 1 m

Dabartinis oras

Ataskaita buvo paskelbta 12 minutes, ne 02:50 UTC
Vėjas 3 kt nuo kintamojo kryptimis
Temperatūra -13°C
Drėgmė 78%
Slėgis 995 hPa
Matomumas 10 km arba daugiau
nėra debesų žemiau 1500 m ir nėra kamuolinių lietaus debesų

METAR: ENTC 010250Z VRB03KT CAVOK M13/M16 Q0995 RMK WIND 2600FT 13007KT

Laikas: 04:02 (03:02 UTC)

Prognozė

Prognozė galioja nuo 01 metu 00 UTC su 01 metu 24 UTC
Vėjas 8 kt iš Pietų/Pietvakarių
Matomumas 10 km arba daugiau
Mažai debesys ne aukštis 4000 ft
Tapsmas
nuo 01 metu 06 UTC su 01 metu 08 UTC
Vėjas 12 kt iš Šiaurės Rytų
Laikinai
nuo 01 metu 09 UTC su 01 metu 21 UTC
Matomumas: 4000 m
ne aukštis 1200 ft
sniegas
Tapsmas
nuo 01 metu 16 UTC su 01 metu 18 UTC
Vėjas 22 kt iš Šiaurės Rytų

TAF: ENTC 0100/0124 20008KT 9999 FEW040 BECMG 0106/0108 04012KT TEMPO 0109/0121 4000 -SHSN VV012 BECMG 0116/0118 04022KT

Orai ataskaitas ir orų prognozės (METAR, TAF).

turimą stotys yra geltonos ir raudonos taškus žemėlapyje.

Perkelti pele per norėdami pamatyti stoties vardą.

Tada spustelėkite, norėdami matyti oro stebėjimo ir prognozės.

Norėdami pakeisti žemėlapį: spustelėkite ant žalios mygtukų su juodo kryžiaus žemyn,; žalią mygtuką su brūkšneliu, jei norite nutolinti; arba žalių rodyklių gretimoms žemėlapius.


METAR-TAF: